createdAt,value
2019-05-09T00:01:47.302Z,100316.40
2019-05-09T00:04:18.723Z,100312.56
2019-05-09T00:06:51.314Z,100305.09
2019-05-09T00:09:23.769Z,100311.77
2019-05-09T00:11:55.280Z,100308.16
2019-05-09T00:14:26.818Z,100315.20
2019-05-09T00:17:00.319Z,100319.50
2019-05-09T00:19:33.470Z,100328.56
2019-05-09T00:22:06.344Z,100332.31
2019-05-09T00:24:38.871Z,100343.50
2019-05-09T00:27:10.375Z,100349.03
2019-05-09T00:29:43.923Z,100347.88
2019-05-09T00:32:20.012Z,100334.70
2019-05-09T00:35:03.859Z,100338.70
2019-05-09T00:37:56.695Z,100340.59
2019-05-09T00:40:28.229Z,100336.22
2019-05-09T00:42:59.766Z,100339.85
2019-05-09T00:45:33.422Z,100341.56
2019-05-09T00:48:05.193Z,100350.55
2019-05-09T00:50:37.208Z,100339.85
2019-05-09T00:53:08.722Z,100333.36
2019-05-09T00:55:40.283Z,100335.79
2019-05-09T00:58:13.537Z,100330.98
2019-05-09T01:00:46.035Z,100332.06
2019-05-09T01:03:19.608Z,100330.28
2019-05-09T01:05:51.247Z,100328.22
2019-05-09T01:08:26.284Z,100311.02
2019-05-09T01:11:09.363Z,100308.34
2019-05-09T01:13:31.108Z,100307.48
2019-05-09T01:16:04.537Z,100302.98
2019-05-09T01:18:36.316Z,100307.01
2019-05-09T01:21:07.884Z,100304.41
2019-05-09T01:23:39.488Z,100302.33
2019-05-09T01:26:13.028Z,100304.00
2019-05-09T01:28:44.399Z,100299.80
2019-05-09T01:31:16.846Z,100298.86
2019-05-09T01:33:49.914Z,100295.16
2019-05-09T01:36:23.466Z,100293.45
2019-05-09T01:38:54.718Z,100298.00
2019-05-09T01:41:30.816Z,100281.34
2019-05-09T01:43:59.693Z,100277.20
2019-05-09T01:46:31.267Z,100286.95
2019-05-09T01:49:04.490Z,100287.82
2019-05-09T01:51:36.045Z,100292.50
2019-05-09T01:54:08.455Z,100291.47
2019-05-09T01:56:42.615Z,100289.50
2019-05-09T01:59:16.226Z,100286.28
2019-05-09T02:01:47.881Z,100293.34
2019-05-09T02:04:19.557Z,100286.48
2019-05-09T02:06:53.720Z,100290.28
2019-05-09T02:09:26.722Z,100286.77
2019-05-09T02:11:58.500Z,100285.61
2019-05-09T02:14:34.259Z,100285.61
2019-05-09T02:17:16.486Z,100281.55
2019-05-09T02:19:48.233Z,100283.47
2019-05-09T02:22:38.879Z,100277.31
2019-05-09T02:25:13.036Z,100276.39
2019-05-09T02:27:45.629Z,100278.45
2019-05-09T02:30:18.591Z,100273.24
2019-05-09T02:32:56.463Z,100269.59
2019-05-09T02:35:36.562Z,100270.52
2019-05-09T02:38:04.924Z,100273.19
2019-05-09T02:40:39.278Z,100271.25
2019-05-09T02:43:10.426Z,100276.22
2019-05-09T02:45:52.802Z,100271.42
2019-05-09T02:48:24.308Z,100268.38
2019-05-09T02:51:00.493Z,100269.48
2019-05-09T02:53:32.368Z,100279.30
2019-05-09T02:56:04.197Z,100278.14
2019-05-09T02:58:38.848Z,100274.97
2019-05-09T03:01:12.197Z,100278.59
2019-05-09T03:03:43.779Z,100271.98
2019-05-09T03:06:15.351Z,100268.28
2019-05-09T03:08:49.078Z,100262.94
2019-05-09T03:11:22.241Z,100261.73
2019-05-09T03:13:53.906Z,100268.70
2019-05-09T03:16:25.448Z,100266.09
2019-05-09T03:18:58.478Z,100257.85
2019-05-09T03:21:49.302Z,100258.50
2019-05-09T03:24:21.619Z,100249.52
2019-05-09T03:26:54.781Z,100249.59
2019-05-09T03:29:39.726Z,100246.85
2019-05-09T03:32:13.346Z,100241.23
2019-05-09T03:34:44.884Z,100243.58
2019-05-09T03:37:17.799Z,100229.38
2019-05-09T03:39:51.992Z,100231.77
2019-05-09T03:42:38.156Z,100228.73
2019-05-09T03:44:58.115Z,100240.98
2019-05-09T03:47:47.893Z,100232.15
2019-05-09T03:50:20.972Z,100233.65
2019-05-09T03:52:52.557Z,100236.25
2019-05-09T03:55:28.168Z,100233.37
2019-05-09T03:58:01.762Z,100232.62
2019-05-09T04:00:34.662Z,100235.02
2019-05-09T04:03:08.243Z,100237.25
2019-05-09T04:05:39.893Z,100241.84
2019-05-09T04:08:18.427Z,100241.44
2019-05-09T04:10:52.473Z,100242.56
2019-05-09T04:13:30.461Z,100241.67
2019-05-09T04:16:02.316Z,100242.29
2019-05-09T04:18:34.861Z,100238.02
2019-05-09T04:21:08.391Z,100244.27
2019-05-09T04:23:39.744Z,100245.46
2019-05-09T04:26:29.541Z,100243.20
2019-05-09T04:29:02.199Z,100242.49
2019-05-09T04:31:33.722Z,100244.53
2019-05-09T04:34:07.686Z,100243.68
2019-05-09T04:36:39.647Z,100242.80
2019-05-09T04:39:20.933Z,100239.75
2019-05-09T04:41:48.436Z,100243.75
2019-05-09T04:44:21.869Z,100240.91
2019-05-09T04:46:54.099Z,100242.92
2019-05-09T04:49:29.722Z,100237.59
2019-05-09T04:52:00.122Z,100244.75
2019-05-09T04:54:32.734Z,100243.17
2019-05-09T04:57:04.229Z,100240.55
2019-05-09T04:59:37.427Z,100241.09
2019-05-09T05:02:18.259Z,100244.75
2019-05-09T05:04:51.080Z,100243.42
2019-05-09T05:07:22.671Z,100243.11
2019-05-09T05:09:54.256Z,100248.63
2019-05-09T05:12:27.762Z,100249.67
2019-05-09T05:14:59.049Z,100248.08
2019-05-09T05:17:30.885Z,100245.22
2019-05-09T05:20:08.204Z,100242.62
2019-05-09T05:22:43.706Z,100241.23
2019-05-09T05:25:17.719Z,100244.83
2019-05-09T05:27:48.514Z,100243.11
2019-05-09T05:30:20.051Z,100234.75
2019-05-09T05:32:53.244Z,100237.58
2019-05-09T05:35:37.558Z,100239.66
2019-05-09T05:38:10.426Z,100239.11
2019-05-09T05:40:46.107Z,100240.63
2019-05-09T05:43:17.293Z,100236.92
2019-05-09T05:45:50.637Z,100245.57
2019-05-09T05:48:27.923Z,100247.41
2019-05-09T05:50:59.574Z,100241.44
2019-05-09T05:53:31.099Z,100254.36
2019-05-09T05:56:02.695Z,100251.94
2019-05-09T05:58:34.305Z,100242.70
2019-05-09T06:01:08.060Z,100237.45
2019-05-09T06:03:40.087Z,100234.41
2019-05-09T06:06:11.692Z,100234.61
2019-05-09T06:08:43.242Z,100241.84
2019-05-09T06:11:14.790Z,100242.56
2019-05-09T06:13:54.468Z,100240.48
2019-05-09T06:16:22.352Z,100243.52
2019-05-09T06:18:58.473Z,100237.05
2019-05-09T06:21:29.278Z,100230.08
2019-05-09T06:24:03.120Z,100225.17
2019-05-09T06:26:37.333Z,100226.36
2019-05-09T06:29:08.976Z,100231.52
2019-05-09T06:31:41.584Z,100232.65
2019-05-09T06:34:14.317Z,100230.05
2019-05-09T06:36:45.819Z,100229.67
2019-05-09T06:39:18.168Z,100232.55
2019-05-09T06:41:49.641Z,100233.93
2019-05-09T06:44:28.619Z,100239.27
2019-05-09T06:47:18.496Z,100236.73
2019-05-09T06:49:51.714Z,100239.73
2019-05-09T06:52:23.152Z,100242.22
2019-05-09T06:54:54.573Z,100244.50
2019-05-09T06:57:28.123Z,100237.25
2019-05-09T06:59:59.194Z,100235.33
2019-05-09T07:02:36.009Z,100240.87
2019-05-09T07:05:17.954Z,100246.75
2019-05-09T07:07:57.635Z,100238.31
2019-05-09T07:10:29.141Z,100238.23
2019-05-09T07:13:01.578Z,100238.97
2019-05-09T07:15:33.061Z,100234.92
2019-05-09T07:18:05.455Z,100224.80
2019-05-09T07:20:38.078Z,100229.23
2019-05-09T07:23:11.478Z,100229.63
2019-05-09T07:25:53.292Z,100232.16
2019-05-09T07:28:24.795Z,100234.64
2019-05-09T07:30:57.768Z,100233.67
2019-05-09T07:33:33.549Z,100237.20
2019-05-09T07:36:08.388Z,100244.73
2019-05-09T07:38:39.181Z,100239.30
2019-05-09T07:41:12.650Z,100246.26
2019-05-09T07:43:44.134Z,100245.03
2019-05-09T07:46:19.884Z,100246.28
2019-05-09T07:48:52.899Z,100243.98
2019-05-09T07:51:24.340Z,100241.09
2019-05-09T07:53:55.816Z,100230.58
2019-05-09T07:56:28.562Z,100225.36
2019-05-09T07:59:00.133Z,100232.93
2019-05-09T08:01:31.607Z,100241.22
2019-05-09T08:04:03.111Z,100245.56
2019-05-09T08:06:37.921Z,100246.69
2019-05-09T08:09:08.799Z,100240.53
2019-05-09T08:11:40.295Z,100238.66
2019-05-09T08:14:11.765Z,100247.55
2019-05-09T08:16:43.217Z,100248.50
2019-05-09T08:19:17.937Z,100241.91
2019-05-09T08:21:48.580Z,100244.87
2019-05-09T08:24:21.190Z,100242.62
2019-05-09T08:26:52.695Z,100244.18
2019-05-09T08:29:24.145Z,100253.71
2019-05-09T08:31:58.045Z,100243.59
2019-05-09T08:34:28.719Z,100235.09
2019-05-09T08:37:00.182Z,100241.47
2019-05-09T08:39:31.606Z,100239.71
2019-05-09T08:42:03.078Z,100227.98
2019-05-09T08:44:34.536Z,100232.53
2019-05-09T08:47:07.863Z,100231.71
2019-05-09T08:49:47.365Z,100239.71
2019-05-09T08:52:19.855Z,100243.21
2019-05-09T08:54:57.686Z,100245.28
2019-05-09T08:57:28.955Z,100251.14
2019-05-09T09:00:00.665Z,100245.48
2019-05-09T09:02:32.351Z,100247.98
2019-05-09T09:05:08.330Z,100236.91
2019-05-09T09:07:38.124Z,100233.06
2019-05-09T09:10:10.277Z,100227.27
2019-05-09T09:12:41.747Z,100240.87
2019-05-09T09:15:13.447Z,100251.63
2019-05-09T09:17:48.865Z,100246.87
2019-05-09T09:20:19.520Z,100255.05
2019-05-09T09:22:50.964Z,100255.44
2019-05-09T09:25:22.437Z,100255.61
2019-05-09T09:27:54.764Z,100253.13
2019-05-09T09:30:29.240Z,100261.63
2019-05-09T09:33:00.655Z,100254.92
2019-05-09T09:35:32.089Z,100260.75
2019-05-09T09:38:03.508Z,100255.11
2019-05-09T09:40:34.951Z,100257.55
2019-05-09T09:43:09.304Z,100249.53
2019-05-09T09:45:43.129Z,100257.36
2019-05-09T09:48:14.597Z,100247.59
2019-05-09T09:50:51.470Z,100251.41
2019-05-09T09:53:20.314Z,100259.35
2019-05-09T09:55:52.755Z,100260.41
2019-05-09T09:58:27.285Z,100271.50
2019-05-09T10:01:09.529Z,100273.20
2019-05-09T10:03:43.081Z,100263.48
2019-05-09T10:06:16.792Z,100264.80
2019-05-09T10:08:48.971Z,100263.97
2019-05-09T10:11:20.737Z,100262.95
2019-05-09T10:13:54.157Z,100259.42
2019-05-09T10:16:50.024Z,100265.33
2019-05-09T10:19:24.107Z,100264.19
2019-05-09T10:22:01.930Z,100276.29
2019-05-09T10:24:35.414Z,100268.41
2019-05-09T10:27:12.587Z,100269.92
2019-05-09T10:29:44.062Z,100268.77
2019-05-09T10:32:23.204Z,100281.71
2019-05-09T10:34:58.090Z,100280.70
2019-05-09T10:37:29.797Z,100275.64
2019-05-09T10:40:01.248Z,100282.48
2019-05-09T10:42:34.296Z,100282.62
2019-05-09T10:45:27.132Z,100279.19
2019-05-09T10:48:01.421Z,100276.16
2019-05-09T10:50:34.736Z,100274.84
2019-05-09T10:53:08.139Z,100269.78
2019-05-09T10:55:42.671Z,100275.30
2019-05-09T10:58:14.162Z,100276.81
2019-05-09T11:00:48.304Z,100285.41
2019-05-09T11:03:21.959Z,100284.61
2019-05-09T11:05:59.210Z,100289.52
2019-05-09T11:08:30.734Z,100285.41
2019-05-09T11:11:06.100Z,100291.31
2019-05-09T11:13:38.932Z,100292.48
2019-05-09T11:16:10.662Z,100294.59
2019-05-09T11:18:42.107Z,100291.92
2019-05-09T11:21:13.565Z,100292.52
2019-05-09T11:23:44.990Z,100285.05
2019-05-09T11:26:17.959Z,100278.16
2019-05-09T11:28:50.850Z,100286.92
2019-05-09T11:31:29.967Z,100289.05
2019-05-09T11:34:02.658Z,100285.03
2019-05-09T11:36:34.147Z,100279.14
2019-05-09T11:39:10.708Z,100281.81
2019-05-09T11:41:41.482Z,100279.50
2019-05-09T11:44:13.020Z,100286.08
2019-05-09T11:46:44.562Z,100288.98
2019-05-09T11:49:18.219Z,100284.69
2019-05-09T11:51:49.656Z,100287.13
2019-05-09T11:54:21.249Z,100296.11
2019-05-09T11:56:52.665Z,100292.10
2019-05-09T11:59:24.187Z,100291.35
2019-05-09T12:01:58.381Z,100280.73
2019-05-09T12:04:28.829Z,100289.34
2019-05-09T12:07:00.340Z,100289.39
2019-05-09T12:09:31.881Z,100290.65
2019-05-09T12:12:03.339Z,100293.63
2019-05-09T12:14:34.770Z,100291.31
2019-05-09T12:17:08.345Z,100289.50
2019-05-09T12:19:40.023Z,100269.56
2019-05-09T12:22:11.461Z,100267.64
2019-05-09T12:24:43.945Z,100284.98
2019-05-09T12:27:15.392Z,100294.80
2019-05-09T12:29:48.380Z,100287.65
2019-05-09T12:32:20.143Z,100275.09
2019-05-09T12:34:52.629Z,100275.28
2019-05-09T12:37:24.288Z,100277.02
2019-05-09T12:39:58.552Z,100291.31
2019-05-09T12:42:30.359Z,100300.69
2019-05-09T12:45:01.895Z,100297.63
2019-05-09T12:47:33.366Z,100294.72
2019-05-09T12:50:08.616Z,100283.59
2019-05-09T12:52:41.483Z,100273.16
2019-05-09T12:55:13.215Z,100277.95
2019-05-09T12:57:44.745Z,100294.48
2019-05-09T13:00:18.683Z,100301.08
2019-05-09T13:02:52.909Z,100309.11
2019-05-09T13:05:24.413Z,100311.30
2019-05-09T13:07:58.482Z,100317.59
2019-05-09T13:10:32.991Z,100318.42
2019-05-09T13:13:04.596Z,100321.42
2019-05-09T13:15:38.431Z,100320.53
2019-05-09T13:18:21.984Z,100308.89
2019-05-09T13:20:43.942Z,100305.84
2019-05-09T13:23:17.969Z,100303.22
2019-05-09T13:25:50.389Z,100319.13
2019-05-09T13:28:22.102Z,100324.00
2019-05-09T13:30:53.695Z,100325.74
2019-05-09T13:33:25.254Z,100333.49
2019-05-09T13:35:58.329Z,100341.92
2019-05-09T13:38:31.519Z,100355.34
2019-05-09T13:41:03.113Z,100362.40
2019-05-09T13:43:34.678Z,100368.98
2019-05-09T13:46:09.555Z,100371.36
2019-05-09T13:49:04.338Z,100379.70
2019-05-09T13:51:18.433Z,100384.09
2019-05-09T13:53:49.398Z,100388.09
2019-05-09T13:56:28.083Z,100382.16
2019-05-09T13:58:58.389Z,100387.44
2019-05-09T14:01:33.198Z,100385.80
2019-05-09T14:04:04.806Z,100390.69
2019-05-09T14:06:38.798Z,100399.19
2019-05-09T14:09:11.777Z,100396.92
2019-05-09T14:11:43.491Z,100400.07
2019-05-09T14:14:17.807Z,100401.34
2019-05-09T14:16:50.958Z,100396.48
2019-05-09T14:19:31.326Z,100400.38
2019-05-09T14:21:58.608Z,100394.35
2019-05-09T14:24:30.506Z,100388.05
2019-05-09T14:27:02.126Z,100385.50
2019-05-09T14:29:33.745Z,100381.84
2019-05-09T14:32:05.890Z,100389.51
2019-05-09T14:34:42.174Z,100393.86
2019-05-09T14:37:13.196Z,100395.38
2019-05-09T14:39:55.886Z,100399.06
2019-05-09T14:42:20.750Z,100397.52
2019-05-09T14:44:52.379Z,100390.94
2019-05-09T14:47:27.698Z,100393.20
2019-05-09T14:49:59.492Z,100400.30
2019-05-09T14:52:31.354Z,100399.06
2019-05-09T14:55:08.227Z,100385.25
2019-05-09T14:57:40.839Z,100394.52
2019-05-09T15:00:12.813Z,100396.27
2019-05-09T15:02:44.312Z,100398.73
2019-05-09T15:05:18.618Z,100401.67
2019-05-09T15:07:53.626Z,100404.14
2019-05-09T15:10:24.146Z,100416.66
2019-05-09T15:12:55.736Z,100417.50
2019-05-09T15:15:32.004Z,100415.93
2019-05-09T15:18:00.504Z,100415.23
2019-05-09T15:20:32.001Z,100420.14
2019-05-09T15:23:03.564Z,100421.54
2019-05-09T15:25:35.209Z,100429.38
2019-05-09T15:28:08.203Z,100428.27
2019-05-09T15:30:41.964Z,100440.27
2019-05-09T15:33:13.628Z,100435.89
2019-05-09T15:35:48.549Z,100449.86
2019-05-09T15:38:22.327Z,100450.19
2019-05-09T15:40:52.727Z,100449.02
2019-05-09T15:43:26.846Z,100457.42
2019-05-09T15:46:08.355Z,100455.99
2019-05-09T15:48:40.628Z,100455.52
2019-05-09T15:51:12.087Z,100457.65
2019-05-09T15:53:43.634Z,100453.58
2019-05-09T15:56:18.586Z,100459.61
2019-05-09T15:58:49.516Z,100464.56
2019-05-09T16:01:20.932Z,100472.41
2019-05-09T16:03:52.382Z,100479.94
2019-05-09T16:06:23.858Z,100476.64
2019-05-09T16:08:58.369Z,100480.55
2019-05-09T16:11:32.156Z,100486.61
2019-05-09T16:14:04.507Z,100487.84
2019-05-09T16:16:38.594Z,100479.14
2019-05-09T16:19:10.019Z,100486.12
2019-05-09T16:21:47.544Z,100485.81
2019-05-09T16:24:19.016Z,100485.02
2019-05-09T16:26:54.788Z,100494.77
2019-05-09T16:29:28.528Z,100494.45
2019-05-09T16:31:59.509Z,100501.19
2019-05-09T16:34:30.932Z,100492.32
2019-05-09T16:37:02.506Z,100506.35
2019-05-09T16:39:34.931Z,100504.79
2019-05-09T16:42:06.610Z,100506.05
2019-05-09T16:44:41.749Z,100515.30
2019-05-09T16:47:11.307Z,100525.10
2019-05-09T16:49:43.324Z,100521.12
2019-05-09T16:52:14.792Z,100521.98
2019-05-09T16:54:50.011Z,100523.70
2019-05-09T16:57:22.035Z,100525.59
2019-05-09T16:59:53.493Z,100529.59
2019-05-09T17:02:28.770Z,100533.17
2019-05-09T17:05:00.145Z,100531.84
2019-05-09T17:07:31.618Z,100535.99
2019-05-09T17:10:03.267Z,100544.17
2019-05-09T17:12:35.743Z,100550.84
2019-05-09T17:15:09.917Z,100541.11
2019-05-09T17:17:41.448Z,100548.45
2019-05-09T17:20:19.143Z,100554.02
2019-05-09T17:23:14.496Z,100557.22
2019-05-09T17:25:41.958Z,100559.11
2019-05-09T17:28:13.519Z,100569.30
2019-05-09T17:30:45.049Z,100566.55
2019-05-09T17:33:16.462Z,100586.05
2019-05-09T17:35:49.869Z,100595.52
2019-05-09T17:38:21.362Z,100602.20
2019-05-09T17:40:52.953Z,100596.77
2019-05-09T17:43:24.412Z,100589.55
2019-05-09T17:45:58.194Z,100595.73
2019-05-09T17:48:29.234Z,100598.23
2019-05-09T17:51:01.589Z,100600.09
2019-05-09T17:53:34.064Z,100609.98
2019-05-09T17:56:10.821Z,100611.56
2019-05-09T17:58:40.086Z,100611.14
2019-05-09T18:01:11.649Z,100617.03
2019-05-09T18:03:44.217Z,100619.02
2019-05-09T18:06:15.877Z,100624.19
2019-05-09T18:08:50.569Z,100623.97
2019-05-09T18:11:23.585Z,100615.73
2019-05-09T18:13:56.318Z,100626.43
2019-05-09T18:16:28.965Z,100623.61
2019-05-09T18:19:01.221Z,100628.68
2019-05-09T18:21:47.273Z,100629.45
2019-05-09T18:24:05.937Z,100632.53
2019-05-09T18:26:38.298Z,100627.20
2019-05-09T18:29:11.056Z,100622.32
2019-05-09T18:31:44.200Z,100629.36
2019-05-09T18:34:18.414Z,100621.51
2019-05-09T18:36:50.428Z,100618.34
2019-05-09T18:39:22.811Z,100611.27
2019-05-09T18:41:57.768Z,100619.00
2019-05-09T18:44:28.982Z,100620.59
2019-05-09T18:47:00.433Z,100626.00
2019-05-09T18:49:31.876Z,100641.37
2019-05-09T18:52:04.356Z,100621.93
2019-05-09T18:54:36.943Z,100626.94
2019-05-09T18:57:08.346Z,100624.47
2019-05-09T18:59:40.899Z,100625.14
2019-05-09T19:02:12.381Z,100624.72
2019-05-09T19:04:44.051Z,100623.34
2019-05-09T19:07:22.316Z,100625.79
2019-05-09T19:09:48.897Z,100621.54
2019-05-09T19:12:21.462Z,100624.41
2019-05-09T19:14:53.032Z,100616.34
2019-05-09T19:17:29.922Z,100615.02
2019-05-09T19:20:02.978Z,100613.43
2019-05-09T19:22:34.455Z,100618.07
2019-05-09T19:25:07.262Z,100616.01
2019-05-09T19:27:40.730Z,100618.88
2019-05-09T19:30:12.789Z,100609.95
2019-05-09T19:32:44.223Z,100606.22
2019-05-09T19:35:15.797Z,100613.69
2019-05-09T19:37:47.348Z,100610.34
2019-05-09T19:40:20.273Z,100612.61
2019-05-09T19:42:53.007Z,100616.55
2019-05-09T19:45:24.455Z,100627.23
2019-05-09T19:47:56.974Z,100640.65
2019-05-09T19:50:29.441Z,100631.69
2019-05-09T19:53:00.838Z,100635.59
2019-05-09T19:55:32.361Z,100633.23
2019-05-09T19:58:06.872Z,100629.89
2019-05-09T20:00:38.260Z,100636.20
2019-05-09T20:03:09.698Z,100639.75
2019-05-09T20:05:42.154Z,100634.27
2019-05-09T20:08:14.651Z,100638.55
2019-05-09T20:11:05.080Z,100645.19
2019-05-09T20:13:38.084Z,100643.01
2019-05-09T20:16:09.483Z,100648.06
2019-05-09T20:18:42.934Z,100656.97
2019-05-09T20:21:14.388Z,100659.48
2019-05-09T20:23:45.855Z,100670.06
2019-05-09T20:26:17.257Z,100658.80
2019-05-09T20:28:48.600Z,100671.66
2019-05-09T20:31:23.165Z,100671.37
2019-05-09T20:33:54.497Z,100662.61
2019-05-09T20:36:25.921Z,100671.06
2019-05-09T20:38:58.582Z,100672.56
2019-05-09T20:41:30.092Z,100674.44
2019-05-09T20:44:01.661Z,100669.20
2019-05-09T20:46:34.335Z,100681.98
2019-05-09T20:49:05.921Z,100680.66
2019-05-09T20:51:37.522Z,100673.70
2019-05-09T20:54:20.543Z,100678.24
2019-05-09T20:56:42.408Z,100681.29
2019-05-09T20:59:15.092Z,100676.09
2019-05-09T21:01:46.756Z,100684.07
2019-05-09T21:04:19.514Z,100676.02
2019-05-09T21:06:51.266Z,100670.53
2019-05-09T21:09:22.983Z,100674.09
2019-05-09T21:11:54.687Z,100677.19
2019-05-09T21:14:26.370Z,100676.24
2019-05-09T21:16:58.085Z,100677.19
2019-05-09T21:19:29.813Z,100674.44
2019-05-09T21:22:01.670Z,100686.41
2019-05-09T21:24:33.368Z,100691.30
2019-05-09T21:27:04.965Z,100693.95
2019-05-09T21:29:37.670Z,100705.91
2019-05-09T21:32:09.470Z,100690.86
2019-05-09T21:34:41.063Z,100697.52
2019-05-09T21:37:14.005Z,100707.28
2019-05-09T21:39:45.760Z,100711.11
2019-05-09T21:42:18.319Z,100708.06
2019-05-09T21:44:50.909Z,100708.72
2019-05-09T21:47:22.423Z,100714.39
2019-05-09T21:49:53.914Z,100715.80
2019-05-09T21:52:25.415Z,100710.74
2019-05-09T21:54:56.951Z,100711.27
2019-05-09T21:57:28.480Z,100702.89
2019-05-09T21:59:59.980Z,100700.75
2019-05-09T22:02:31.472Z,100703.02
2019-05-09T22:05:03.401Z,100692.38
2019-05-09T22:07:36.237Z,100691.72
2019-05-09T22:10:08.566Z,100693.83
2019-05-09T22:12:40.107Z,100700.29
2019-05-09T22:15:12.975Z,100699.36
2019-05-09T22:17:45.467Z,100695.52
2019-05-09T22:20:17.209Z,100687.91
2019-05-09T22:22:49.322Z,100695.06
2019-05-09T22:25:20.831Z,100694.80
2019-05-09T22:27:52.347Z,100700.23
2019-05-09T22:30:23.948Z,100707.27
2019-05-09T22:32:55.556Z,100711.91
2019-05-09T22:35:27.065Z,100714.56
2019-05-09T22:37:58.429Z,100713.08
2019-05-09T22:40:29.820Z,100715.31
2019-05-09T22:43:02.421Z,100732.73
2019-05-09T22:45:33.979Z,100732.19
2019-05-09T22:48:05.417Z,100725.94
2019-05-09T22:50:36.949Z,100725.31
2019-05-09T22:53:08.491Z,100726.30
2019-05-09T22:55:44.692Z,100730.67
2019-05-09T22:58:16.141Z,100732.51
2019-05-09T23:00:48.007Z,100732.94
2019-05-09T23:03:19.404Z,100731.53
2019-05-09T23:05:50.790Z,100727.08
2019-05-09T23:08:22.322Z,100731.38
2019-05-09T23:10:53.839Z,100733.61
2019-05-09T23:13:25.279Z,100731.65
2019-05-09T23:15:57.698Z,100727.86
2019-05-09T23:18:29.153Z,100735.09
2019-05-09T23:21:00.578Z,100730.59
2019-05-09T23:23:37.366Z,100724.34
2019-05-09T23:26:08.915Z,100720.89
2019-05-09T23:28:41.497Z,100712.38
2019-05-09T23:31:14.517Z,100713.23
2019-05-09T23:33:45.949Z,100705.22
2019-05-09T23:36:17.490Z,100711.32
2019-05-09T23:39:06.846Z,100711.32
2019-05-09T23:41:38.318Z,100713.66
2019-05-09T23:44:10.765Z,100695.69
2019-05-09T23:46:42.167Z,100698.81
2019-05-09T23:49:13.643Z,100701.16
2019-05-09T23:51:46.849Z,100694.31
2019-05-09T23:54:47.824Z,100697.09
2019-05-09T23:57:31.281Z,100695.09
